PTSA/KSA METAR and TAF weather

Enter ICAO airport designator
Station Type Date Time Source
PTSA METAR 2019/10/19 01:55 UTC NOAA

PTSA 190155Z 18005KT 10SM SCT020 BKN300 32/25 A2978 RMK LAST


Station Type Date Time Source
PTSA Decoded METAR 2019/10/19 01:55 UTC NOAA

Kosrae Island, Kosrae Airport, Micronesia, Federated States of (PTSA) 05-21N 162-57E
Oct 18, 2019 - 09:55 PM EDT / 2019.10.19 0155 UTC
Wind: from the S (180 degrees) at 6 MPH (5 KT):0
Visibility: 10 mile(s):0
Sky conditions: mostly cloudy
Temperature: 89 F (32 C)
Heat index: 100.6 F (38.1 C):1
Dew Point: 77 F (25 C)
Relative Humidity: 66%
Pressure (altimeter): 29.78 in. Hg (1008 hPa)
ob: PTSA 190155Z 18005KT 10SM SCT020 BKN300 32/25 A2978 RMK LAST
cycle: 2

Station Type Date Time Source
PTSA TAF 2019/10/18 02:32 UTC NOAA

TAF
AMD PTSA 180220Z 1802/1824 18011KT P6SM VCSH SCT015 SCT060 BKN100
TEMPO 1802/1806 3SM SHRA BKN012 OVC030

Example: see airport list